createdAt,value
2016-08-21T00:00:12.176Z,23.79
2016-08-21T00:00:46.484Z,23.75
2016-08-21T00:01:20.788Z,23.79
2016-08-21T00:01:55.053Z,23.72
2016-08-21T00:02:29.348Z,23.82
2016-08-21T00:03:03.658Z,23.78
2016-08-21T00:03:37.951Z,23.77
2016-08-21T00:04:12.255Z,23.78
2016-08-21T00:04:46.553Z,23.77
2016-08-21T00:05:20.840Z,23.75
2016-08-21T00:05:55.129Z,23.77
2016-08-21T00:06:29.426Z,23.78
2016-08-21T00:07:03.737Z,23.7
2016-08-21T00:07:38.055Z,23.75
2016-08-21T00:08:12.341Z,23.75
2016-08-21T00:08:46.620Z,23.77
2016-08-21T00:09:20.904Z,23.71
2016-08-21T00:09:55.196Z,23.79
2016-08-21T00:10:29.491Z,23.75
2016-08-21T00:11:03.797Z,23.77
2016-08-21T00:11:38.087Z,23.75
2016-08-21T00:12:12.390Z,23.78
2016-08-21T00:12:46.688Z,23.74
2016-08-21T00:13:20.981Z,23.79
2016-08-21T00:13:55.282Z,23.79
2016-08-21T00:14:29.581Z,23.74
2016-08-21T00:15:03.870Z,23.79
2016-08-21T00:15:38.159Z,23.75
2016-08-21T00:16:12.455Z,23.79
2016-08-21T00:16:46.745Z,23.77
2016-08-21T00:17:21.034Z,23.78
2016-08-21T00:17:55.322Z,23.78
2016-08-21T00:18:29.626Z,23.77
2016-08-21T00:19:03.920Z,23.74
2016-08-21T00:19:38.226Z,23.77
2016-08-21T00:20:12.524Z,23.72
2016-08-21T00:20:46.818Z,23.79
2016-08-21T00:21:21.138Z,23.75
2016-08-21T00:21:55.428Z,23.74
2016-08-21T00:22:29.729Z,23.78
2016-08-21T00:23:04.042Z,23.72
2016-08-21T00:23:38.344Z,23.74
2016-08-21T00:24:12.637Z,23.72
2016-08-21T00:24:46.913Z,23.77
2016-08-21T00:25:21.215Z,23.71
2016-08-21T00:25:55.535Z,23.75
2016-08-21T00:26:29.839Z,23.75
2016-08-21T00:27:04.140Z,23.71
2016-08-21T00:27:38.417Z,23.74
2016-08-21T00:28:12.698Z,23.74
2016-08-21T00:28:46.986Z,23.74
2016-08-21T00:29:21.273Z,23.75
2016-08-21T00:29:55.560Z,23.77
2016-08-21T00:30:29.845Z,23.78
2016-08-21T00:31:04.139Z,23.75
2016-08-21T00:31:38.439Z,23.72
2016-08-21T00:32:12.733Z,23.75
2016-08-21T00:32:47.022Z,23.79
2016-08-21T00:33:21.345Z,23.74
2016-08-21T00:33:55.638Z,23.74
2016-08-21T00:34:29.927Z,23.78
2016-08-21T00:35:04.221Z,23.74
2016-08-21T00:35:38.513Z,23.78
2016-08-21T00:36:12.800Z,23.77
2016-08-21T00:36:47.097Z,23.72
2016-08-21T00:37:21.389Z,23.75
2016-08-21T00:37:55.689Z,23.78
2016-08-21T00:38:29.983Z,23.78
2016-08-21T00:39:04.281Z,23.74
2016-08-21T00:39:38.569Z,23.75
2016-08-21T00:40:12.865Z,23.75
2016-08-21T00:40:47.160Z,23.77
2016-08-21T00:41:21.470Z,23.74
2016-08-21T00:41:55.767Z,23.72
2016-08-21T00:42:30.082Z,23.72
2016-08-21T00:43:04.370Z,23.77
2016-08-21T00:43:38.676Z,23.75
2016-08-21T00:44:12.989Z,23.78
2016-08-21T00:44:47.282Z,23.79
2016-08-21T00:45:21.580Z,23.72
2016-08-21T00:45:55.885Z,23.71
2016-08-21T00:46:30.178Z,23.79
2016-08-21T00:47:04.470Z,23.74
2016-08-21T00:47:38.769Z,23.75
2016-08-21T00:48:13.065Z,23.71
2016-08-21T00:48:47.354Z,23.72
2016-08-21T00:49:21.657Z,23.77
2016-08-21T00:49:55.941Z,23.74
2016-08-21T00:50:30.224Z,23.7
2016-08-21T00:51:04.524Z,23.72
2016-08-21T00:51:38.838Z,23.74
2016-08-21T00:52:13.130Z,23.77
2016-08-21T00:52:47.417Z,23.72
2016-08-21T00:53:21.710Z,23.78
2016-08-21T00:53:56.014Z,23.72
2016-08-21T00:54:30.305Z,23.67
2016-08-21T00:55:04.600Z,23.71
2016-08-21T00:55:38.892Z,23.77
2016-08-21T00:56:13.206Z,23.72
2016-08-21T00:56:47.502Z,23.72
2016-08-21T00:57:21.775Z,23.72
2016-08-21T00:57:56.082Z,23.72
2016-08-21T00:58:30.374Z,23.71
2016-08-21T00:59:04.678Z,23.75
2016-08-21T00:59:38.976Z,23.74
2016-08-21T01:00:13.255Z,23.75
2016-08-21T01:00:47.555Z,23.64
2016-08-21T01:01:21.861Z,23.75
2016-08-21T01:01:56.171Z,23.77
2016-08-21T01:02:30.464Z,23.75
2016-08-21T01:03:04.751Z,23.71
2016-08-21T01:03:39.066Z,23.71
2016-08-21T01:04:13.359Z,23.7
2016-08-21T01:04:47.646Z,23.71
2016-08-21T01:05:21.931Z,23.77
2016-08-21T01:05:56.253Z,23.74
2016-08-21T01:06:30.533Z,23.71
2016-08-21T01:07:04.815Z,23.7
2016-08-21T01:07:39.119Z,23.67
2016-08-21T01:08:13.427Z,23.66
2016-08-21T01:08:47.736Z,23.64
2016-08-21T01:09:22.039Z,23.75
2016-08-21T01:09:56.326Z,23.7
2016-08-21T01:10:30.609Z,23.71
2016-08-21T01:11:04.894Z,23.7
2016-08-21T01:11:39.200Z,23.7
2016-08-21T01:12:13.508Z,23.7
2016-08-21T01:12:47.815Z,23.66
2016-08-21T01:13:22.105Z,23.71
2016-08-21T01:13:56.405Z,23.7
2016-08-21T01:14:30.703Z,23.74
2016-08-21T01:15:05.013Z,23.72
2016-08-21T01:15:39.293Z,23.72
2016-08-21T01:16:13.600Z,23.72
2016-08-21T01:16:47.887Z,23.72
2016-08-21T01:17:22.188Z,23.7
2016-08-21T01:17:56.479Z,23.7
2016-08-21T01:18:30.769Z,23.72
2016-08-21T01:19:05.067Z,23.71
2016-08-21T01:19:39.361Z,23.71
2016-08-21T01:20:13.668Z,23.7
2016-08-21T01:20:47.966Z,23.67
2016-08-21T01:21:22.296Z,23.66
2016-08-21T01:21:56.600Z,23.7
2016-08-21T01:22:30.893Z,23.72
2016-08-21T01:23:05.197Z,23.7
2016-08-21T01:23:39.493Z,23.67
2016-08-21T01:24:13.784Z,23.7
2016-08-21T01:24:48.085Z,23.67
2016-08-21T01:25:22.376Z,23.64
2016-08-21T01:25:56.675Z,23.67
2016-08-21T01:26:30.975Z,23.7
2016-08-21T01:27:05.282Z,23.67
2016-08-21T01:27:39.590Z,23.71
2016-08-21T01:28:13.880Z,23.66
2016-08-21T01:28:48.191Z,23.63
2016-08-21T01:29:22.493Z,23.67
2016-08-21T01:29:56.798Z,23.64
2016-08-21T01:30:31.087Z,23.66
2016-08-21T01:31:05.391Z,23.71
2016-08-21T01:31:39.706Z,23.67
2016-08-21T01:32:13.992Z,23.63
2016-08-21T01:32:48.295Z,23.66
2016-08-21T01:33:22.591Z,23.67
2016-08-21T01:33:56.895Z,23.67
2016-08-21T01:34:31.186Z,23.64
2016-08-21T01:35:05.486Z,23.7
2016-08-21T01:35:39.790Z,23.64
2016-08-21T01:36:14.091Z,23.6
2016-08-21T01:36:48.393Z,23.64
2016-08-21T01:37:22.689Z,23.71
2016-08-21T01:37:57.003Z,23.67
2016-08-21T01:38:31.303Z,23.6
2016-08-21T01:39:05.592Z,23.64
2016-08-21T01:39:39.887Z,23.66
2016-08-21T01:40:14.196Z,23.67
2016-08-21T01:40:48.496Z,23.62
2016-08-21T01:41:22.771Z,23.66
2016-08-21T01:41:57.056Z,23.6
2016-08-21T01:42:31.337Z,23.66
2016-08-21T01:43:05.622Z,23.67
2016-08-21T01:43:39.913Z,23.7
2016-08-21T01:44:14.206Z,23.6
2016-08-21T01:44:48.506Z,23.7
2016-08-21T01:45:22.795Z,23.7
2016-08-21T01:45:57.088Z,23.62
2016-08-21T01:46:31.380Z,23.63
2016-08-21T01:47:05.676Z,23.62
2016-08-21T01:47:39.993Z,23.6
2016-08-21T01:48:14.282Z,23.57
2016-08-21T01:48:48.581Z,23.64
2016-08-21T01:49:22.883Z,23.63
2016-08-21T01:49:57.173Z,23.62
2016-08-21T01:50:31.445Z,23.64
2016-08-21T01:51:05.752Z,23.6
2016-08-21T01:51:40.062Z,23.63
2016-08-21T01:52:14.362Z,23.59
2016-08-21T01:52:48.646Z,23.59
2016-08-21T01:53:22.952Z,23.6
2016-08-21T01:53:57.247Z,23.62
2016-08-21T01:54:31.552Z,23.71
2016-08-21T01:55:05.856Z,23.59
2016-08-21T01:55:40.176Z,23.64
2016-08-21T01:56:14.486Z,23.62
2016-08-21T01:56:48.773Z,23.63
2016-08-21T01:57:23.074Z,23.6
2016-08-21T01:57:57.369Z,23.63
2016-08-21T01:58:31.655Z,23.62
2016-08-21T01:59:05.951Z,23.59
2016-08-21T01:59:40.225Z,23.62
2016-08-21T02:00:14.531Z,23.57
2016-08-21T02:00:48.821Z,23.55
2016-08-21T02:01:23.106Z,23.6
2016-08-21T02:01:57.404Z,23.62
2016-08-21T02:02:31.719Z,23.57
2016-08-21T02:03:06.018Z,23.63
2016-08-21T02:03:40.313Z,23.6
2016-08-21T02:04:14.621Z,23.6
2016-08-21T02:04:48.919Z,23.66
2016-08-21T02:05:23.199Z,23.62
2016-08-21T02:05:57.488Z,23.57
2016-08-21T02:06:31.785Z,23.6
2016-08-21T02:07:06.081Z,23.6
2016-08-21T02:07:40.400Z,23.6
2016-08-21T02:08:14.696Z,23.6
2016-08-21T02:08:48.993Z,23.56
2016-08-21T02:09:23.298Z,23.6
2016-08-21T02:09:57.617Z,23.63
2016-08-21T02:10:31.933Z,23.59
2016-08-21T02:11:06.229Z,23.6
2016-08-21T02:11:40.510Z,23.62
2016-08-21T02:12:14.815Z,23.55
2016-08-21T02:12:49.109Z,23.56
2016-08-21T02:13:23.418Z,23.55
2016-08-21T02:13:57.717Z,23.6
2016-08-21T02:14:32.011Z,23.57
2016-08-21T02:15:06.297Z,23.6
2016-08-21T02:15:40.618Z,23.53
2016-08-21T02:16:14.916Z,23.6
2016-08-21T02:16:49.214Z,23.62
2016-08-21T02:17:23.535Z,23.6
2016-08-21T02:17:57.834Z,23.59
2016-08-21T02:18:32.133Z,23.57
2016-08-21T02:19:06.416Z,23.55
2016-08-21T02:19:40.712Z,23.6
2016-08-21T02:20:15.002Z,23.6
2016-08-21T02:20:49.310Z,23.59
2016-08-21T02:21:23.602Z,23.66
2016-08-21T02:21:57.902Z,23.6
2016-08-21T02:22:32.195Z,23.52
2016-08-21T02:23:06.495Z,23.57
2016-08-21T02:23:40.799Z,23.63
2016-08-21T02:24:15.094Z,23.6
2016-08-21T02:24:49.392Z,23.64
2016-08-21T02:25:23.704Z,23.59
2016-08-21T02:25:57.998Z,23.56
2016-08-21T02:26:32.293Z,23.63
2016-08-21T02:27:06.578Z,23.55
2016-08-21T02:27:40.865Z,23.6
2016-08-21T02:28:15.177Z,23.64
2016-08-21T02:28:49.459Z,23.55
2016-08-21T02:29:23.751Z,23.5
2016-08-21T02:29:58.053Z,23.57
2016-08-21T02:30:32.344Z,23.57
2016-08-21T02:31:06.634Z,23.53
2016-08-21T02:31:40.937Z,23.56
2016-08-21T02:32:15.237Z,23.52
2016-08-21T02:32:49.533Z,23.53
2016-08-21T02:33:23.817Z,23.6
2016-08-21T02:33:58.110Z,23.57
2016-08-21T02:34:32.410Z,23.5
2016-08-21T02:35:06.702Z,23.53
2016-08-21T02:35:40.995Z,23.55
2016-08-21T02:36:15.294Z,23.6
2016-08-21T02:36:49.604Z,23.53
2016-08-21T02:37:23.902Z,23.5
2016-08-21T02:37:58.199Z,23.53
2016-08-21T02:38:32.510Z,23.56
2016-08-21T02:39:06.821Z,23.5
2016-08-21T02:39:41.142Z,23.57
2016-08-21T02:40:15.426Z,23.56
2016-08-21T02:40:49.712Z,23.53
2016-08-21T02:41:24.005Z,23.52
2016-08-21T02:41:58.306Z,23.53
2016-08-21T02:42:32.590Z,23.53
2016-08-21T02:43:06.887Z,23.52
2016-08-21T02:43:41.185Z,23.57
2016-08-21T02:44:15.478Z,23.5
2016-08-21T02:44:49.782Z,23.52
2016-08-21T02:45:24.087Z,23.5
2016-08-21T02:45:58.385Z,23.57
2016-08-21T02:46:32.676Z,23.56
2016-08-21T02:47:06.983Z,23.53
2016-08-21T02:47:41.277Z,23.6
2016-08-21T02:48:15.573Z,23.52
2016-08-21T02:48:49.894Z,23.55
2016-08-21T02:49:24.206Z,23.57
2016-08-21T02:49:58.497Z,23.56
2016-08-21T02:50:32.780Z,23.57
2016-08-21T02:51:07.091Z,23.53
2016-08-21T02:51:41.385Z,23.56
2016-08-21T02:52:15.671Z,23.52
2016-08-21T02:52:49.964Z,23.59
2016-08-21T02:53:24.269Z,23.52
2016-08-21T02:53:58.568Z,23.53
2016-08-21T02:54:32.858Z,23.5
2016-08-21T02:55:07.163Z,23.55
2016-08-21T02:55:41.477Z,23.5
2016-08-21T02:56:15.781Z,23.53
2016-08-21T02:56:50.067Z,23.56
2016-08-21T02:57:24.362Z,23.48
2016-08-21T02:57:58.679Z,23.6
2016-08-21T02:58:32.987Z,23.59
2016-08-21T02:59:07.290Z,23.56
2016-08-21T02:59:41.589Z,23.47
2016-08-21T03:00:15.881Z,23.5
2016-08-21T03:00:50.172Z,23.57
2016-08-21T03:01:24.470Z,23.62
2016-08-21T03:01:58.749Z,23.59
2016-08-21T03:02:33.043Z,23.56
2016-08-21T03:03:07.339Z,23.55
2016-08-21T03:03:41.642Z,23.59
2016-08-21T03:04:15.943Z,23.53
2016-08-21T03:04:50.241Z,23.48
2016-08-21T03:05:24.559Z,23.47
2016-08-21T03:05:58.841Z,23.47
2016-08-21T03:06:33.133Z,23.56
2016-08-21T03:07:07.425Z,23.48
2016-08-21T03:07:41.751Z,23.5
2016-08-21T03:08:16.063Z,23.57
2016-08-21T03:08:50.359Z,23.48
2016-08-21T03:09:24.662Z,23.47
2016-08-21T03:09:58.958Z,23.5
2016-08-21T03:10:33.252Z,23.47
2016-08-21T03:11:07.556Z,23.56
2016-08-21T03:11:41.855Z,23.5
2016-08-21T03:12:16.151Z,23.53
2016-08-21T03:12:50.436Z,23.47
2016-08-21T03:13:24.719Z,23.47
2016-08-21T03:13:59.022Z,23.42
2016-08-21T03:14:33.328Z,23.59
2016-08-21T03:15:07.626Z,23.59
2016-08-21T03:15:41.921Z,23.48
2016-08-21T03:16:16.248Z,23.47
2016-08-21T03:16:50.540Z,23.47
2016-08-21T03:17:24.814Z,23.44
2016-08-21T03:17:59.103Z,23.56
2016-08-21T03:18:33.396Z,23.45
2016-08-21T03:19:07.683Z,23.53
2016-08-21T03:19:41.968Z,23.45
2016-08-21T03:20:16.262Z,23.47
2016-08-21T03:20:50.583Z,23.5
2016-08-21T03:21:24.876Z,23.55
2016-08-21T03:21:59.157Z,23.45
2016-08-21T03:22:33.445Z,23.47
2016-08-21T03:23:07.736Z,23.48
2016-08-21T03:23:42.032Z,23.44
2016-08-21T03:24:16.325Z,23.5
2016-08-21T03:24:50.625Z,23.52
2016-08-21T03:25:24.927Z,23.45
2016-08-21T03:25:59.231Z,23.45
2016-08-21T03:26:33.550Z,23.44
2016-08-21T03:27:07.848Z,23.45
2016-08-21T03:27:42.152Z,23.47
2016-08-21T03:28:16.461Z,23.48
2016-08-21T03:28:50.755Z,23.42
2016-08-21T03:29:25.056Z,23.48
2016-08-21T03:29:59.363Z,23.45
2016-08-21T03:30:33.655Z,23.45
2016-08-21T03:31:07.941Z,23.5
2016-08-21T03:31:42.229Z,23.44
2016-08-21T03:32:16.528Z,23.41
2016-08-21T03:32:50.835Z,23.52
2016-08-21T03:33:25.122Z,23.42
2016-08-21T03:33:59.395Z,23.45
2016-08-21T03:34:33.709Z,23.45
2016-08-21T03:35:08.031Z,23.48
2016-08-21T03:35:42.336Z,23.42
2016-08-21T03:36:16.635Z,23.47
2016-08-21T03:36:50.930Z,23.42
2016-08-21T03:37:25.233Z,23.44
2016-08-21T03:37:59.520Z,23.47
2016-08-21T03:38:33.813Z,23.42
2016-08-21T03:39:08.100Z,23.44
2016-08-21T03:39:42.413Z,23.48
2016-08-21T03:40:16.731Z,23.41
2016-08-21T03:40:51.025Z,23.44
2016-08-21T03:41:25.334Z,23.42
2016-08-21T03:41:59.636Z,23.48
2016-08-21T03:42:33.934Z,23.53
2016-08-21T03:43:08.222Z,23.48
2016-08-21T03:43:42.530Z,23.41
2016-08-21T03:44:16.813Z,23.47
2016-08-21T03:44:51.131Z,23.45
2016-08-21T03:45:25.424Z,23.47
2016-08-21T03:45:59.733Z,23.45
2016-08-21T03:46:34.024Z,23.52
2016-08-21T03:47:08.319Z,23.42
2016-08-21T03:47:42.624Z,23.48
2016-08-21T03:48:16.921Z,23.48
2016-08-21T03:48:51.216Z,23.45
2016-08-21T03:49:25.504Z,23.42
2016-08-21T03:49:59.798Z,23.44
2016-08-21T03:50:34.103Z,23.48
2016-08-21T03:51:08.406Z,23.47
2016-08-21T03:51:42.696Z,23.48
2016-08-21T03:52:16.985Z,23.42
2016-08-21T03:52:51.304Z,23.53
2016-08-21T03:53:25.607Z,23.45
2016-08-21T03:53:59.900Z,23.47
2016-08-21T03:54:34.200Z,23.41
2016-08-21T03:55:08.504Z,23.41
2016-08-21T03:55:42.807Z,23.45
2016-08-21T03:56:17.106Z,23.41
2016-08-21T03:56:51.391Z,23.44
2016-08-21T03:57:25.671Z,23.47
2016-08-21T03:57:59.990Z,23.42
2016-08-21T03:58:34.291Z,23.4
2016-08-21T03:59:08.583Z,23.4
2016-08-21T03:59:42.863Z,23.35
2016-08-21T04:00:17.161Z,23.4
2016-08-21T04:00:51.458Z,23.4
2016-08-21T04:01:25.760Z,23.44
2016-08-21T04:02:00.068Z,23.41
2016-08-21T04:02:34.370Z,23.44
2016-08-21T04:03:08.674Z,23.44
2016-08-21T04:03:42.956Z,23.47
2016-08-21T04:04:17.246Z,23.37
2016-08-21T04:04:51.556Z,23.4
2016-08-21T04:05:25.861Z,23.41
2016-08-21T04:06:00.143Z,23.42
2016-08-21T04:06:34.422Z,23.45
2016-08-21T04:07:08.729Z,23.44
2016-08-21T04:07:43.022Z,23.4
2016-08-21T04:08:17.309Z,23.44
2016-08-21T04:08:51.599Z,23.37
2016-08-21T04:09:25.898Z,23.42
2016-08-21T04:10:00.183Z,23.42
2016-08-21T04:10:34.478Z,23.34
2016-08-21T04:11:08.781Z,23.41
2016-08-21T04:11:43.087Z,23.4
2016-08-21T04:12:17.371Z,23.37
2016-08-21T04:12:51.673Z,23.44
2016-08-21T04:13:25.954Z,23.37
2016-08-21T04:14:00.240Z,23.37
2016-08-21T04:14:34.521Z,23.41
2016-08-21T04:15:08.818Z,23.35
2016-08-21T04:15:43.096Z,23.4
2016-08-21T04:16:17.394Z,23.37
2016-08-21T04:16:51.671Z,23.44
2016-08-21T04:17:25.977Z,23.42
2016-08-21T04:18:00.284Z,23.41
2016-08-21T04:18:34.565Z,23.35
2016-08-21T04:19:08.857Z,23.44
2016-08-21T04:19:43.156Z,23.42
2016-08-21T04:20:17.464Z,23.44
2016-08-21T04:20:51.764Z,23.32
2016-08-21T04:21:26.076Z,23.4
2016-08-21T04:22:00.360Z,23.44
2016-08-21T04:22:34.660Z,23.32
2016-08-21T04:23:08.965Z,23.42
2016-08-21T04:23:43.270Z,23.4
2016-08-21T04:24:17.554Z,23.37
2016-08-21T04:24:51.861Z,23.38
2016-08-21T04:25:26.181Z,23.35
2016-08-21T04:26:00.472Z,23.42
2016-08-21T04:26:34.760Z,23.37
2016-08-21T04:27:09.055Z,23.42
2016-08-21T04:27:43.369Z,23.44
2016-08-21T04:28:17.656Z,23.42
2016-08-21T04:28:51.947Z,23.4
2016-08-21T04:29:26.257Z,23.38
2016-08-21T04:30:00.561Z,23.4
2016-08-21T04:30:34.843Z,23.4
2016-08-21T04:31:09.152Z,23.44
2016-08-21T04:31:43.472Z,23.41
2016-08-21T04:32:17.784Z,23.44
2016-08-21T04:32:52.080Z,23.41
2016-08-21T04:33:26.392Z,23.37
2016-08-21T04:34:00.688Z,23.38
2016-08-21T04:34:34.977Z,23.41
2016-08-21T04:35:09.262Z,23.37
2016-08-21T04:35:43.547Z,23.4
2016-08-21T04:36:17.836Z,23.35
2016-08-21T04:36:52.126Z,23.35
2016-08-21T04:37:26.423Z,23.35
2016-08-21T04:38:00.708Z,23.38
2016-08-21T04:38:34.984Z,23.4
2016-08-21T04:39:09.271Z,23.38
2016-08-21T04:39:43.590Z,23.35
2016-08-21T04:40:17.881Z,23.37
2016-08-21T04:40:52.188Z,23.4
2016-08-21T04:41:26.485Z,23.41
2016-08-21T04:42:00.802Z,23.37
2016-08-21T04:42:35.120Z,23.45
2016-08-21T04:43:09.415Z,23.35
2016-08-21T04:43:43.708Z,23.45
2016-08-21T04:44:17.997Z,23.38
2016-08-21T04:44:52.297Z,23.41
2016-08-21T04:45:26.592Z,23.38
2016-08-21T04:46:00.889Z,23.38
2016-08-21T04:46:35.182Z,23.35
2016-08-21T04:47:09.487Z,23.4
2016-08-21T04:47:43.803Z,23.34
2016-08-21T04:48:18.096Z,23.38
2016-08-21T04:48:52.394Z,23.38
2016-08-21T04:49:26.693Z,23.4
2016-08-21T04:50:01.000Z,23.4
2016-08-21T04:50:35.297Z,23.37
2016-08-21T04:51:09.588Z,23.4
2016-08-21T04:51:43.893Z,23.37
2016-08-21T04:52:18.208Z,23.4
2016-08-21T04:52:52.500Z,23.42
2016-08-21T04:53:26.779Z,23.44
2016-08-21T04:54:01.079Z,23.38
2016-08-21T04:54:35.379Z,23.42
2016-08-21T04:55:09.693Z,23.38
2016-08-21T04:55:43.981Z,23.41
2016-08-21T04:56:18.295Z,23.4
2016-08-21T04:56:52.585Z,23.35
2016-08-21T04:57:26.873Z,23.4
2016-08-21T04:58:01.156Z,23.37
2016-08-21T04:58:35.437Z,23.41
2016-08-21T04:59:09.729Z,23.4
2016-08-21T04:59:44.027Z,23.4
2016-08-21T05:00:18.309Z,23.38
2016-08-21T05:00:52.616Z,23.41
2016-08-21T05:01:26.893Z,23.37
2016-08-21T05:02:01.209Z,23.4
2016-08-21T05:02:35.509Z,23.41
2016-08-21T05:03:09.813Z,23.4
2016-08-21T05:03:44.116Z,23.34
2016-08-21T05:04:18.409Z,23.42
2016-08-21T05:04:52.689Z,23.4
2016-08-21T05:05:26.999Z,23.45
2016-08-21T05:06:01.303Z,23.41
2016-08-21T05:06:35.603Z,23.35
2016-08-21T05:07:09.884Z,23.41
2016-08-21T05:07:44.191Z,23.45
2016-08-21T05:08:18.497Z,23.37
2016-08-21T05:08:52.807Z,23.38
2016-08-21T05:09:27.095Z,23.4
2016-08-21T05:10:01.398Z,23.47
2016-08-21T05:10:35.685Z,23.37
2016-08-21T05:11:09.979Z,23.35
2016-08-21T05:11:44.269Z,23.38
2016-08-21T05:12:18.559Z,23.41
2016-08-21T05:12:52.847Z,23.35
2016-08-21T05:13:27.133Z,23.4
2016-08-21T05:14:01.427Z,23.28
2016-08-21T05:14:35.727Z,23.34
2016-08-21T05:15:10.023Z,23.26
2016-08-21T05:15:44.312Z,23.42
2016-08-21T05:16:18.606Z,23.28
2016-08-21T05:16:52.887Z,23.38
2016-08-21T05:17:27.188Z,23.38
2016-08-21T05:18:01.468Z,23.29
2016-08-21T05:18:35.764Z,23.38
2016-08-21T05:19:10.057Z,23.32
2016-08-21T05:19:44.363Z,23.29
2016-08-21T05:20:18.659Z,23.26
2016-08-21T05:20:52.952Z,23.44
2016-08-21T05:21:27.250Z,23.38
2016-08-21T05:22:01.556Z,23.4
2016-08-21T05:22:35.850Z,23.37
2016-08-21T05:23:10.144Z,23.38
2016-08-21T05:23:44.423Z,23.25
2016-08-21T05:24:18.718Z,23.4
2016-08-21T05:24:53.030Z,23.37
2016-08-21T05:25:27.338Z,23.28
2016-08-21T05:26:01.624Z,23.35
2016-08-21T05:26:35.917Z,23.38
2016-08-21T05:27:10.217Z,23.41
2016-08-21T05:27:44.505Z,23.38
2016-08-21T05:28:18.809Z,23.32
2016-08-21T05:28:53.093Z,23.29
2016-08-21T05:29:27.373Z,23.38
2016-08-21T05:30:01.676Z,23.35
2016-08-21T05:30:35.992Z,23.32
2016-08-21T05:31:10.285Z,23.32
2016-08-21T05:31:44.585Z,23.26
2016-08-21T05:32:18.879Z,23.34
2016-08-21T05:32:53.168Z,23.29
2016-08-21T05:33:27.463Z,23.28
2016-08-21T05:34:01.771Z,23.25
2016-08-21T05:34:36.070Z,23.25
2016-08-21T05:35:10.367Z,23.28
2016-08-21T05:35:44.640Z,23.29
2016-08-21T05:36:18.945Z,23.25
2016-08-21T05:36:53.236Z,23.28
2016-08-21T05:37:27.509Z,23.29
2016-08-21T05:38:01.814Z,23.28
2016-08-21T05:38:36.101Z,23.35
2016-08-21T05:39:10.409Z,23.22
2016-08-21T05:39:44.709Z,23.25
2016-08-21T05:40:18.997Z,23.34
2016-08-21T05:40:53.301Z,23.29
2016-08-21T05:41:27.582Z,23.22
2016-08-21T05:42:01.876Z,23.26
2016-08-21T05:42:36.168Z,23.29
2016-08-21T05:43:10.470Z,23.38
2016-08-21T05:43:44.777Z,23.26
2016-08-21T05:44:19.056Z,23.25
2016-08-21T05:44:53.361Z,23.32
2016-08-21T05:45:27.668Z,23.28
2016-08-21T05:46:01.982Z,23.25
2016-08-21T05:46:36.271Z,23.26
2016-08-21T05:47:10.578Z,23.25
2016-08-21T05:47:44.885Z,23.29
2016-08-21T05:48:19.184Z,23.26
2016-08-21T05:48:53.480Z,23.21
2016-08-21T05:49:27.794Z,23.24
2016-08-21T05:50:02.107Z,23.32
2016-08-21T05:50:36.435Z,23.25
2016-08-21T05:51:10.741Z,23.28
2016-08-21T05:51:45.039Z,23.21
2016-08-21T05:52:19.332Z,23.26
2016-08-21T05:52:53.607Z,23.26
2016-08-21T05:53:27.913Z,23.32
2016-08-21T05:54:02.229Z,23.35
2016-08-21T05:54:36.529Z,23.16
2016-08-21T05:55:10.817Z,23.29
2016-08-21T05:55:45.121Z,23.26
2016-08-21T05:56:19.438Z,23.22
2016-08-21T05:56:53.732Z,23.25
2016-08-21T05:57:28.029Z,23.24
2016-08-21T05:58:02.332Z,23.22
2016-08-21T05:58:36.648Z,23.24
2016-08-21T05:59:10.960Z,23.25
2016-08-21T05:59:45.254Z,23.28
2016-08-21T06:00:19.539Z,23.22
2016-08-21T06:00:53.848Z,23.22
2016-08-21T06:01:28.148Z,23.25
2016-08-21T06:02:02.454Z,23.19
2016-08-21T06:02:36.746Z,23.28
2016-08-21T06:03:11.032Z,23.21
2016-08-21T06:03:45.327Z,23.32
2016-08-21T06:04:19.612Z,23.25
2016-08-21T06:04:53.909Z,23.22
2016-08-21T06:05:28.202Z,23.29
2016-08-21T06:06:02.511Z,23.26
2016-08-21T06:06:36.810Z,23.26
2016-08-21T06:07:11.095Z,23.24
2016-08-21T06:07:45.385Z,23.25
2016-08-21T06:08:19.671Z,23.22
2016-08-21T06:08:53.964Z,23.22
2016-08-21T06:09:28.258Z,23.28
2016-08-21T06:10:02.554Z,23.28
2016-08-21T06:10:36.850Z,23.26
2016-08-21T06:11:11.149Z,23.29
2016-08-21T06:11:45.445Z,23.22
2016-08-21T06:12:19.730Z,23.32
2016-08-21T06:12:54.046Z,23.26
2016-08-21T06:13:28.341Z,23.22
2016-08-21T06:14:02.632Z,23.25
2016-08-21T06:14:36.932Z,23.24
2016-08-21T06:15:11.209Z,23.28
2016-08-21T06:15:45.492Z,23.25
2016-08-21T06:16:19.787Z,23.26
2016-08-21T06:16:54.076Z,23.26
2016-08-21T06:17:28.367Z,23.25
2016-08-21T06:18:02.671Z,23.26
2016-08-21T06:18:36.971Z,23.24
2016-08-21T06:19:11.274Z,23.28
2016-08-21T06:19:45.570Z,23.26
2016-08-21T06:20:19.854Z,23.32
2016-08-21T06:20:54.148Z,23.35
2016-08-21T06:21:28.446Z,23.22
2016-08-21T06:22:02.745Z,23.21
2016-08-21T06:22:37.021Z,23.32
2016-08-21T06:23:11.319Z,23.28
2016-08-21T06:23:45.626Z,23.22
2016-08-21T06:24:19.896Z,23.21
2016-08-21T06:24:54.182Z,23.19
2016-08-21T06:25:28.478Z,23.22
2016-08-21T06:26:02.767Z,23.34
2016-08-21T06:26:37.083Z,23.25
2016-08-21T06:27:11.383Z,23.34
2016-08-21T06:27:45.677Z,23.24
2016-08-21T06:28:19.958Z,23.26
2016-08-21T06:28:54.280Z,23.26
2016-08-21T06:29:28.573Z,23.26
2016-08-21T06:30:02.866Z,23.25
2016-08-21T06:30:37.174Z,23.22
2016-08-21T06:31:11.463Z,23.28
2016-08-21T06:31:45.763Z,23.21
2016-08-21T06:32:20.047Z,23.22
2016-08-21T06:32:54.343Z,23.25
2016-08-21T06:33:28.648Z,23.21
2016-08-21T06:34:02.952Z,23.28
2016-08-21T06:34:37.271Z,23.24
2016-08-21T06:35:11.557Z,23.28
2016-08-21T06:35:45.858Z,23.34
2016-08-21T06:36:20.157Z,23.28
2016-08-21T06:36:54.453Z,23.21
2016-08-21T06:37:28.741Z,23.22
2016-08-21T06:38:03.032Z,23.24
2016-08-21T06:38:37.333Z,23.24
2016-08-21T06:39:11.633Z,23.25
2016-08-21T06:39:45.951Z,23.26
2016-08-21T06:40:20.260Z,23.32
2016-08-21T06:40:54.559Z,23.25
2016-08-21T06:41:28.847Z,23.26
2016-08-21T06:42:03.146Z,23.22
2016-08-21T06:42:37.431Z,23.21
2016-08-21T06:43:11.719Z,23.24
2016-08-21T06:43:46.013Z,23.26
2016-08-21T06:44:20.319Z,23.22
2016-08-21T06:44:54.612Z,23.24
2016-08-21T06:45:28.887Z,23.29
2016-08-21T06:46:03.186Z,23.28
2016-08-21T06:46:37.488Z,23.32
2016-08-21T06:47:11.791Z,23.25
2016-08-21T06:47:46.081Z,23.18
2016-08-21T06:48:20.378Z,23.21
2016-08-21T06:48:54.672Z,23.28
2016-08-21T06:49:28.971Z,23.25
2016-08-21T06:50:03.274Z,23.24
2016-08-21T06:50:37.570Z,23.24
2016-08-21T06:51:11.889Z,23.29
2016-08-21T06:51:46.192Z,23.22
2016-08-21T06:52:20.487Z,23.29
2016-08-21T06:52:54.791Z,23.19
2016-08-21T06:53:29.072Z,23.25
2016-08-21T06:54:03.370Z,23.22
2016-08-21T06:54:37.664Z,23.25
2016-08-21T06:55:11.953Z,23.34
2016-08-21T06:55:46.228Z,23.29
2016-08-21T06:56:20.530Z,23.28
2016-08-21T06:56:54.817Z,23.26
2016-08-21T06:57:29.098Z,23.28
2016-08-21T06:58:03.386Z,23.25
2016-08-21T06:58:37.690Z,23.24
2016-08-21T06:59:11.971Z,23.24
2016-08-21T06:59:46.273Z,23.24
2016-08-21T07:00:20.563Z,23.29
2016-08-21T07:00:54.857Z,23.21
2016-08-21T07:01:29.141Z,23.28
2016-08-21T07:02:03.440Z,23.24
2016-08-21T07:02:37.722Z,23.22
2016-08-21T07:03:12.018Z,23.25
2016-08-21T07:03:46.318Z,23.24
2016-08-21T07:04:20.629Z,23.21
2016-08-21T07:04:54.913Z,23.21
2016-08-21T07:05:29.205Z,23.22
2016-08-21T07:06:03.520Z,23.16
2016-08-21T07:06:37.837Z,23.22
2016-08-21T07:07:12.120Z,23.21
2016-08-21T07:07:46.430Z,23.26
2016-08-21T07:08:20.726Z,23.18
2016-08-21T07:08:55.018Z,23.21
2016-08-21T07:09:29.312Z,23.21
2016-08-21T07:10:03.610Z,23.19
2016-08-21T07:10:37.930Z,23.22
2016-08-21T07:11:12.222Z,23.25
2016-08-21T07:11:46.529Z,23.21
2016-08-21T07:12:20.846Z,23.29
2016-08-21T07:12:55.139Z,23.25
2016-08-21T07:13:29.430Z,23.26
2016-08-21T07:14:03.728Z,23.24
2016-08-21T07:14:38.022Z,23.21
2016-08-21T07:15:12.322Z,23.19
2016-08-21T07:15:46.606Z,23.26
2016-08-21T07:16:20.906Z,23.26
2016-08-21T07:16:55.207Z,23.19
2016-08-21T07:17:29.515Z,23.25
2016-08-21T07:18:03.812Z,23.22
2016-08-21T07:18:38.096Z,23.28
2016-08-21T07:19:12.376Z,23.24
2016-08-21T07:19:46.681Z,23.28
2016-08-21T07:20:20.993Z,23.24
2016-08-21T07:20:55.277Z,23.25
2016-08-21T07:21:29.573Z,23.24
2016-08-21T07:22:03.866Z,23.19
2016-08-21T07:22:38.145Z,23.18
2016-08-21T07:23:12.434Z,23.32